Waidhofen an der Thaya, Austria
Current Conditions -  °F | °C
As of 8:00 AM on Sunday 23 Nov 2014 (Local Time) from LKNA Reporting Station
Overcast Overcast  
Wind Chill: 31°   Ceiling: 1000
Heat Index: 37°   Visibility: 4mi
Dew Point: 36°   Wind: 9mph
Humidity: 93%   Direction: 130°SE
Pressure: 30.3"   Gusts: NA
Location:  48.82°N, 15.28°E
Report Text: LKNA 230600Z 13008KT 6000 BKN010 OVC015 03/02 Q1026 NOSIG
Loading
Personal Weather Stations






























Interactive Weather Map New forecast layout! Learn more

10-Day Weather Forecast

Advertisements
Track Severe Weather on mobile